createdAt,value
2024-03-05T00:00:47.863Z,99592.19
2024-03-05T00:03:49.941Z,99601.91
2024-03-05T00:06:52.017Z,99587.25
2024-03-05T00:09:53.934Z,99593.31
2024-03-05T00:12:55.894Z,99596.06
2024-03-05T00:15:58.517Z,99589.31
2024-03-05T00:19:00.610Z,99599.72
2024-03-05T00:22:02.393Z,99593.75
2024-03-05T00:25:05.516Z,99592.13
2024-03-05T00:28:07.400Z,99590.53
2024-03-05T00:31:09.416Z,99601.00
2024-03-05T00:34:11.325Z,99594.22
2024-03-05T00:37:13.348Z,99603.69
2024-03-05T00:40:15.993Z,99598.72
2024-03-05T00:43:18.102Z,99580.50
2024-03-05T00:46:22.193Z,99590.03
2024-03-05T00:49:24.461Z,99601.28
2024-03-05T00:52:26.565Z,99596.31
2024-03-05T00:55:29.860Z,99606.78
2024-03-05T00:58:32.018Z,99561.16
2024-03-05T01:01:35.111Z,99522.66
2024-03-05T01:04:37.819Z,99568.41
2024-03-05T01:07:40.667Z,99596.06
2024-03-05T01:10:46.615Z,99594.47
2024-03-05T01:13:48.702Z,99596.44
2024-03-05T01:16:50.754Z,99603.28
2024-03-05T01:19:52.871Z,99558.47
2024-03-05T01:22:54.982Z,99589.56
2024-03-05T01:25:57.130Z,99594.88
2024-03-05T01:28:59.200Z,99609.56
2024-03-05T01:32:03.318Z,99598.31
2024-03-05T01:35:10.387Z,99578.53
2024-03-05T01:38:12.292Z,99601.81
2024-03-05T01:41:14.687Z,99594.81
2024-03-05T01:44:16.688Z,99593.16
2024-03-05T01:47:18.943Z,99595.88
2024-03-05T01:50:20.959Z,99598.53
2024-03-05T01:53:25.149Z,99552.19
2024-03-05T01:56:27.074Z,99592.66
2024-03-05T01:59:29.135Z,99556.47
2024-03-05T02:02:31.532Z,99614.25
2024-03-05T02:05:34.156Z,99608.16
2024-03-05T02:08:36.653Z,99609.19
2024-03-05T02:11:52.128Z,99605.72
2024-03-05T02:14:58.241Z,99594.50
2024-03-05T02:18:00.227Z,99618.06
2024-03-05T02:21:04.398Z,99552.59
2024-03-05T02:24:06.818Z,99604.31
2024-03-05T02:27:11.948Z,99622.56
2024-03-05T02:30:16.555Z,99631.31
2024-03-05T02:33:20.088Z,99628.78
2024-03-05T02:36:24.741Z,99617.69
2024-03-05T02:39:28.556Z,99639.41
2024-03-05T02:42:30.485Z,99635.13
2024-03-05T02:45:32.411Z,99633.41
2024-03-05T02:48:34.438Z,99622.53
2024-03-05T02:51:36.489Z,99631.88
2024-03-05T02:54:41.127Z,99637.09
2024-03-05T02:57:43.267Z,99610.41
2024-03-05T03:00:45.426Z,99633.59
2024-03-05T03:03:47.420Z,99642.22
2024-03-05T03:06:49.381Z,99643.19
2024-03-05T03:09:51.372Z,99655.31
2024-03-05T03:12:53.966Z,99654.53
2024-03-05T03:15:55.871Z,99610.59
2024-03-05T03:18:57.764Z,99659.75
2024-03-05T03:21:59.775Z,99612.41
2024-03-05T03:25:01.765Z,99658.09
2024-03-05T03:28:04.063Z,99654.63
2024-03-05T03:35:59.922Z,99619.75
2024-03-05T03:39:01.853Z,99661.28
2024-03-05T03:42:04.221Z,99674.44
2024-03-05T03:45:06.464Z,99668.63
2024-03-05T03:48:08.816Z,99654.13
2024-03-05T03:51:11.076Z,99667.25
2024-03-05T03:54:13.023Z,99674.19
2024-03-05T03:57:14.948Z,99663.09
2024-03-05T04:00:20.307Z,99675.19
2024-03-05T04:03:22.433Z,99678.56
2024-03-05T04:06:24.410Z,99689.06
2024-03-05T04:09:26.428Z,99680.59
2024-03-05T04:12:29.066Z,99682.28
2024-03-05T04:15:31.168Z,99691.78
2024-03-05T04:18:33.237Z,99669.31
2024-03-05T04:21:45.889Z,99688.41
2024-03-05T04:24:53.898Z,99689.41
2024-03-05T04:27:57.229Z,99698.81
2024-03-05T04:30:59.207Z,99696.28
2024-03-05T04:34:04.104Z,99693.75
2024-03-05T04:37:10.154Z,99698.03
2024-03-05T04:40:12.634Z,99698.81
2024-03-05T04:43:14.584Z,99697.97
2024-03-05T04:46:16.656Z,99686.16
2024-03-05T04:49:18.621Z,99702.53
2024-03-05T04:52:20.651Z,99723.41
2024-03-05T04:55:23.507Z,99691.28
2024-03-05T04:58:25.768Z,99664.50
2024-03-05T05:01:27.864Z,99711.97
2024-03-05T05:04:30.090Z,99707.59
2024-03-05T05:07:32.094Z,99709.31
2024-03-05T05:10:35.297Z,99688.63
2024-03-05T05:13:37.227Z,99715.44
2024-03-05T05:16:39.261Z,99714.53
2024-03-05T05:19:42.331Z,99740.72
2024-03-05T05:22:45.888Z,99725.00
2024-03-05T05:25:48.054Z,99723.16
2024-03-05T05:28:51.488Z,99710.16
2024-03-05T05:31:53.595Z,99703.94
2024-03-05T05:34:55.699Z,99734.22
2024-03-05T05:37:58.777Z,99670.94
2024-03-05T05:41:00.831Z,99713.00
2024-03-05T05:44:02.899Z,99724.22
2024-03-05T05:47:05.120Z,99724.00
2024-03-05T05:50:18.786Z,99727.38
2024-03-05T05:53:20.938Z,99712.59
2024-03-05T05:56:22.915Z,99666.88
2024-03-05T05:59:26.463Z,99708.94
2024-03-05T06:02:29.163Z,99717.56
2024-03-05T06:05:36.716Z,99728.84
2024-03-05T06:08:38.771Z,99723.72
2024-03-05T06:11:40.962Z,99738.69
2024-03-05T06:14:43.031Z,99725.09
2024-03-05T06:17:46.528Z,99748.63
2024-03-05T06:20:50.726Z,99758.28
2024-03-05T06:23:52.540Z,99752.31
2024-03-05T06:26:54.641Z,99750.78
2024-03-05T06:29:56.841Z,99709.50
2024-03-05T06:32:58.861Z,99703.50
2024-03-05T06:36:03.080Z,99766.53
2024-03-05T06:39:10.446Z,99758.75
2024-03-05T06:42:14.705Z,99751.03
2024-03-05T06:45:26.111Z,99757.97
2024-03-05T06:48:31.907Z,99766.53
2024-03-05T06:51:43.433Z,99788.94
2024-03-05T06:55:03.998Z,99769.91
2024-03-05T06:58:06.002Z,99748.44
2024-03-05T07:01:10.886Z,99795.88
2024-03-05T07:04:12.705Z,99802.69
2024-03-05T07:07:14.822Z,99777.28
2024-03-05T07:10:22.579Z,99788.38
2024-03-05T07:13:24.829Z,99784.75
2024-03-05T07:16:26.878Z,99795.03
2024-03-05T07:19:28.985Z,99797.47
2024-03-05T07:22:31.028Z,99787.75
2024-03-05T07:25:33.039Z,99792.03
2024-03-05T07:28:35.097Z,99740.94
2024-03-05T07:31:37.367Z,99767.63
2024-03-05T07:34:41.113Z,99786.47
2024-03-05T07:37:47.970Z,99789.53
2024-03-05T07:40:50.466Z,99805.63
2024-03-05T07:43:52.650Z,99799.09
2024-03-05T07:46:56.089Z,99785.63
2024-03-05T07:49:58.141Z,99791.31
2024-03-05T07:53:00.438Z,99788.44
2024-03-05T07:56:02.540Z,99789.84
2024-03-05T07:59:04.567Z,99792.88
2024-03-05T08:02:08.818Z,99790.44
2024-03-05T08:05:11.113Z,99776.75
2024-03-05T08:08:13.272Z,99788.78
2024-03-05T08:11:15.237Z,99755.91
2024-03-05T08:14:17.175Z,99769.50
2024-03-05T08:17:19.959Z,99768.63
2024-03-05T08:20:26.945Z,99770.84
2024-03-05T08:23:28.975Z,99773.91
2024-03-05T08:26:31.011Z,99757.16
2024-03-05T08:29:33.034Z,99767.91
2024-03-05T08:32:41.709Z,99778.69
2024-03-05T08:35:44.671Z,99779.19
2024-03-05T08:38:50.379Z,99782.28
2024-03-05T08:41:52.667Z,99779.72
2024-03-05T08:44:54.701Z,99773.13
2024-03-05T08:47:56.823Z,99775.25
2024-03-05T08:51:01.988Z,99771.38
2024-03-05T08:54:04.016Z,99762.63
2024-03-05T08:57:07.047Z,99765.69
2024-03-05T09:00:26.876Z,99769.81
2024-03-05T09:03:38.177Z,99778.53
2024-03-05T09:06:42.010Z,99760.97
2024-03-05T09:09:44.026Z,99775.84
2024-03-05T09:12:45.985Z,99783.75
2024-03-05T09:15:48.159Z,99767.22
2024-03-05T09:18:50.161Z,99780.06
2024-03-05T09:21:52.190Z,99767.97
2024-03-05T09:24:54.340Z,99786.13
2024-03-05T09:27:56.439Z,99758.91
2024-03-05T09:30:58.462Z,99781.56
2024-03-05T09:34:03.829Z,99784.69
2024-03-05T09:37:06.625Z,99783.31
2024-03-05T09:40:17.116Z,99785.25
2024-03-05T09:43:23.213Z,99764.47
2024-03-05T09:46:27.660Z,99770.94
2024-03-05T09:49:30.924Z,99774.16
2024-03-05T09:52:35.236Z,99789.28
2024-03-05T09:55:37.596Z,99788.81
2024-03-05T09:58:40.833Z,99785.69
2024-03-05T10:01:46.015Z,99773.53
2024-03-05T10:04:48.392Z,99784.97
2024-03-05T10:07:50.962Z,99783.16
2024-03-05T10:11:04.417Z,99784.97
2024-03-05T10:14:12.373Z,99755.03
2024-03-05T10:17:14.432Z,99784.00
2024-03-05T10:20:29.736Z,99795.56
2024-03-05T10:23:31.902Z,99787.22
2024-03-05T10:26:34.067Z,99784.75
2024-03-05T10:29:39.198Z,99787.41
2024-03-05T10:32:41.589Z,99774.50
2024-03-05T10:35:51.356Z,99781.16
2024-03-05T10:38:54.666Z,99732.72
2024-03-05T10:42:01.121Z,99766.13
2024-03-05T10:45:03.508Z,99783.22
2024-03-05T10:48:06.371Z,99778.69
2024-03-05T10:51:14.318Z,99765.56
2024-03-05T10:54:16.407Z,99778.81
2024-03-05T10:57:20.227Z,99766.41
2024-03-05T11:00:25.369Z,99769.34
2024-03-05T11:03:42.892Z,99736.78
2024-03-05T11:06:48.429Z,99753.03
2024-03-05T11:09:51.279Z,99760.03
2024-03-05T11:12:57.311Z,99733.03
2024-03-05T11:16:01.630Z,99737.06
2024-03-05T11:19:10.633Z,99741.22
2024-03-05T11:22:27.756Z,99733.78
2024-03-05T11:25:32.170Z,99730.97
2024-03-05T11:28:37.524Z,99736.53
2024-03-05T11:31:52.298Z,99721.94
2024-03-05T11:35:01.947Z,99727.38
2024-03-05T11:38:07.297Z,99726.78
2024-03-05T11:41:10.157Z,99728.28
2024-03-05T11:44:14.408Z,99729.03
2024-03-05T11:47:21.203Z,99729.06
2024-03-05T11:50:25.244Z,99704.66
2024-03-05T11:53:28.284Z,99696.31
2024-03-05T11:56:30.454Z,99713.81
2024-03-05T11:59:39.884Z,99705.19
2024-03-05T12:02:59.798Z,99715.56
2024-03-05T12:06:04.778Z,99720.91
2024-03-05T12:09:21.763Z,99719.19
2024-03-05T12:12:27.401Z,99717.72
2024-03-05T12:15:32.553Z,99720.59
2024-03-05T12:18:35.563Z,99712.50
2024-03-05T12:21:43.786Z,99701.09
2024-03-05T12:24:46.201Z,99699.56
2024-03-05T12:27:51.198Z,99705.34
2024-03-05T12:30:53.763Z,99701.50
2024-03-05T12:33:56.851Z,99715.25
2024-03-05T12:36:58.858Z,99706.63
2024-03-05T12:40:01.498Z,99706.00
2024-03-05T12:43:11.624Z,99706.19
2024-03-05T12:46:20.635Z,99691.06
2024-03-05T12:49:22.617Z,99655.19
2024-03-05T12:52:24.775Z,99690.84
2024-03-05T12:55:27.996Z,99702.34
2024-03-05T12:58:46.411Z,99696.50
2024-03-05T13:01:49.609Z,99703.75
2024-03-05T13:04:53.092Z,99692.97
2024-03-05T13:07:56.157Z,99691.81
2024-03-05T13:11:00.276Z,99698.41
2024-03-05T13:14:24.827Z,99680.03
2024-03-05T13:17:30.112Z,99710.66
2024-03-05T13:20:37.150Z,99698.22
2024-03-05T13:23:41.635Z,99698.31
2024-03-05T13:26:50.206Z,99700.97
2024-03-05T13:30:01.535Z,99692.66
2024-03-05T13:33:12.889Z,99693.59
2024-03-05T13:36:14.928Z,99702.22
2024-03-05T13:39:23.455Z,99678.00
2024-03-05T13:42:25.790Z,99698.53
2024-03-05T13:45:28.882Z,99666.28
2024-03-05T13:48:34.691Z,99705.56
2024-03-05T13:51:39.219Z,99650.94
2024-03-05T13:54:41.268Z,99674.38
2024-03-05T13:57:43.308Z,99702.47
2024-03-05T14:00:45.347Z,99694.53
2024-03-05T14:03:47.430Z,99708.28
2024-03-05T14:06:49.866Z,99708.09
2024-03-05T14:09:51.882Z,99703.63
2024-03-05T14:12:55.119Z,99695.16
2024-03-05T14:15:57.189Z,99685.25
2024-03-05T14:19:00.110Z,99683.56
2024-03-05T14:22:03.809Z,99697.72
2024-03-05T14:25:09.322Z,99705.50
2024-03-05T14:28:15.455Z,99700.38
2024-03-05T14:31:18.666Z,99686.47
2024-03-05T14:34:24.804Z,99669.06
2024-03-05T14:37:28.957Z,99683.69
2024-03-05T14:40:33.423Z,99718.63
2024-03-05T14:43:36.466Z,99714.19
2024-03-05T14:46:40.543Z,99690.91
2024-03-05T14:49:43.666Z,99713.50
2024-03-05T14:52:45.822Z,99722.66
2024-03-05T14:55:47.879Z,99720.59
2024-03-05T14:58:50.006Z,99714.94
2024-03-05T15:01:53.694Z,99718.97
2024-03-05T15:04:57.739Z,99647.69
2024-03-05T15:07:59.752Z,99687.44
2024-03-05T15:11:02.176Z,99734.22
2024-03-05T15:14:04.673Z,99746.75
2024-03-05T15:17:08.972Z,99717.78
2024-03-05T15:20:12.808Z,99754.94
2024-03-05T15:23:15.069Z,99708.69
2024-03-05T15:26:17.303Z,99753.91
2024-03-05T15:29:19.588Z,99761.00
2024-03-05T15:32:22.521Z,99759.09
2024-03-05T15:35:25.314Z,99758.88
2024-03-05T15:38:27.297Z,99741.84
2024-03-05T15:41:30.010Z,99768.13
2024-03-05T15:44:32.031Z,99745.25
2024-03-05T15:47:38.405Z,99785.06
2024-03-05T15:50:43.448Z,99790.44
2024-03-05T15:53:45.556Z,99794.78
2024-03-05T15:56:58.538Z,99804.44
2024-03-05T16:00:12.460Z,99792.31
2024-03-05T16:03:14.696Z,99781.41
2024-03-05T16:06:19.421Z,99818.34
2024-03-05T16:09:21.867Z,99813.91
2024-03-05T16:12:27.472Z,99760.81
2024-03-05T16:15:32.548Z,99836.44
2024-03-05T16:18:34.973Z,99828.25
2024-03-05T16:21:37.525Z,99827.06
2024-03-05T16:24:39.844Z,99815.59
2024-03-05T16:27:46.191Z,99826.47
2024-03-05T16:30:49.421Z,99820.50
2024-03-05T16:33:51.399Z,99787.69
2024-03-05T16:36:53.296Z,99848.47
2024-03-05T16:39:55.224Z,99855.16
2024-03-05T16:42:58.240Z,99870.41
2024-03-05T16:46:01.331Z,99849.06
2024-03-05T16:49:04.910Z,99848.78
2024-03-05T16:52:07.947Z,99850.75
2024-03-05T16:55:14.576Z,99852.97
2024-03-05T16:58:19.124Z,99876.22
2024-03-05T17:01:23.310Z,99885.06
2024-03-05T17:04:29.035Z,99892.19
2024-03-05T17:07:33.723Z,99870.78
2024-03-05T17:10:36.580Z,99884.00
2024-03-05T17:13:42.758Z,99881.78
2024-03-05T17:16:47.065Z,99888.91
2024-03-05T17:19:49.057Z,99884.69
2024-03-05T17:22:53.567Z,99900.41
2024-03-05T17:25:57.253Z,99896.28
2024-03-05T17:29:06.683Z,99911.41
2024-03-05T17:32:11.016Z,99887.13
2024-03-05T17:35:13.970Z,99921.94
2024-03-05T17:38:16.023Z,99902.13
2024-03-05T17:41:18.157Z,99904.91
2024-03-05T17:44:20.276Z,99921.47
2024-03-05T17:47:22.298Z,99921.59
2024-03-05T17:50:26.029Z,99908.25
2024-03-05T17:53:27.919Z,99944.81
2024-03-05T17:56:31.527Z,99925.31
2024-03-05T17:59:33.872Z,99959.44
2024-03-05T18:02:36.616Z,99951.09
2024-03-05T18:05:38.696Z,99938.84
2024-03-05T18:08:40.879Z,99940.03
2024-03-05T18:11:43.024Z,99961.88
2024-03-05T18:14:45.223Z,99965.63
2024-03-05T18:17:51.904Z,99963.94
2024-03-05T18:20:55.282Z,99959.59
2024-03-05T18:23:59.146Z,99975.50
2024-03-05T18:27:05.174Z,99978.81
2024-03-05T18:30:10.952Z,99973.88
2024-03-05T18:33:15.466Z,99967.34
2024-03-05T18:36:20.859Z,99985.00
2024-03-05T18:39:24.176Z,99987.06
2024-03-05T18:42:29.784Z,99989.91
2024-03-05T18:45:33.270Z,99988.38
2024-03-05T18:48:35.260Z,99905.97
2024-03-05T18:51:37.173Z,99991.47
2024-03-05T18:54:40.724Z,100001.22
2024-03-05T18:57:44.412Z,99996.31
2024-03-05T19:00:47.850Z,99997.59
2024-03-05T19:03:52.811Z,100017.75
2024-03-05T19:06:56.282Z,99995.28
2024-03-05T19:09:59.211Z,100015.41
2024-03-05T19:13:07.318Z,100005.44
2024-03-05T19:16:09.508Z,100022.78
2024-03-05T19:19:11.959Z,100015.03
2024-03-05T19:22:13.872Z,100023.00
2024-03-05T19:25:18.613Z,100003.94
2024-03-05T19:28:21.065Z,100018.94
2024-03-05T19:31:23.078Z,100011.13
2024-03-05T19:34:26.035Z,100000.06
2024-03-05T19:37:28.207Z,100000.16
2024-03-05T19:40:30.156Z,100008.38
2024-03-05T19:43:37.612Z,100014.44
2024-03-05T19:46:40.680Z,100011.09
2024-03-05T19:49:43.499Z,99980.31
2024-03-05T19:52:47.016Z,100011.41
2024-03-05T19:55:49.043Z,100028.91
2024-03-05T19:58:51.047Z,100002.13
2024-03-05T20:01:53.106Z,100001.50
2024-03-05T20:04:55.109Z,99961.13
2024-03-05T20:07:57.127Z,100001.53
2024-03-05T20:10:59.374Z,99998.25
2024-03-05T20:14:01.416Z,99996.50
2024-03-05T20:17:07.331Z,99949.28
2024-03-05T20:20:18.946Z,100011.47
2024-03-05T20:23:24.322Z,100007.31
2024-03-05T20:26:26.435Z,100014.28
2024-03-05T20:29:30.029Z,100018.94
2024-03-05T20:32:32.399Z,99954.31
2024-03-05T20:35:38.638Z,100013.84
2024-03-05T20:38:42.325Z,99997.47
2024-03-05T20:41:46.559Z,100004.56
2024-03-05T20:44:48.503Z,100022.78
2024-03-05T20:47:50.433Z,100026.34
2024-03-05T20:50:52.543Z,99978.88
2024-03-05T20:53:54.847Z,100034.28
2024-03-05T20:56:57.192Z,99984.00
2024-03-05T21:00:10.293Z,100000.59
2024-03-05T21:03:12.647Z,99960.13
2024-03-05T21:06:14.858Z,100024.97
2024-03-05T21:09:17.009Z,100020.72
2024-03-05T21:12:19.071Z,100004.28
2024-03-05T21:15:22.498Z,100034.75
2024-03-05T21:18:24.789Z,100000.34
2024-03-05T21:21:26.812Z,100028.06
2024-03-05T21:24:30.354Z,100023.91
2024-03-05T21:27:40.209Z,100037.81
2024-03-05T21:30:43.629Z,99946.66
2024-03-05T21:33:45.565Z,100038.91
2024-03-05T21:36:47.543Z,100045.91
2024-03-05T21:39:49.791Z,100040.25
2024-03-05T21:42:51.775Z,100028.00
2024-03-05T21:45:53.661Z,100045.31
2024-03-05T21:48:55.898Z,100059.38
2024-03-05T21:51:59.247Z,100062.16
2024-03-05T21:55:01.272Z,100058.75
2024-03-05T21:58:03.611Z,100039.88
2024-03-05T22:01:06.047Z,100072.88
2024-03-05T22:04:08.193Z,100042.47
2024-03-05T22:07:10.134Z,100066.09
2024-03-05T22:10:13.162Z,100069.56
2024-03-05T22:13:15.196Z,100068.75
2024-03-05T22:16:17.165Z,100072.25
2024-03-05T22:19:19.181Z,100066.22
2024-03-05T22:22:24.135Z,100071.53
2024-03-05T22:25:26.396Z,100074.28
2024-03-05T22:28:28.277Z,100070.81
2024-03-05T22:31:31.342Z,100063.94
2024-03-05T22:34:34.806Z,100060.56
2024-03-05T22:37:40.081Z,100064.00
2024-03-05T22:40:42.853Z,100020.09
2024-03-05T22:43:45.205Z,100071.13
2024-03-05T22:46:48.688Z,100064.25
2024-03-05T22:49:50.594Z,100066.13
2024-03-05T22:52:53.429Z,100070.53
2024-03-05T22:55:56.969Z,100061.09
2024-03-05T22:58:59.965Z,99957.38
2024-03-05T23:02:02.271Z,100067.94
2024-03-05T23:05:05.770Z,100065.44
2024-03-05T23:08:13.505Z,100051.81
2024-03-05T23:11:16.362Z,100072.75
2024-03-05T23:14:18.484Z,100052.81
2024-03-05T23:17:20.506Z,100068.47
2024-03-05T23:20:22.752Z,100076.41
2024-03-05T23:23:24.731Z,100058.31
2024-03-05T23:26:27.653Z,100057.59
2024-03-05T23:29:29.777Z,100079.19
2024-03-05T23:32:33.544Z,100093.16
2024-03-05T23:35:35.708Z,100079.28
2024-03-05T23:38:37.599Z,100063.78
2024-03-05T23:41:40.979Z,100082.00
2024-03-05T23:44:43.096Z,100074.25
2024-03-05T23:47:45.585Z,100076.97
2024-03-05T23:50:47.719Z,100096.16
2024-03-05T23:53:49.638Z,100084.91
2024-03-05T23:56:51.576Z,100062.44
2024-03-05T23:59:53.873Z,100059.84
